createdAt,value
2019-01-04T00:00:56.052Z,99.99
2019-01-04T00:01:55.738Z,99.99
2019-01-04T00:02:56.148Z,99.99
2019-01-04T00:03:57.113Z,99.99
2019-01-04T00:04:57.794Z,99.99
2019-01-04T00:05:58.648Z,99.99
2019-01-04T00:06:59.387Z,99.99
2019-01-04T00:08:00.344Z,99.99
2019-01-04T00:09:00.883Z,99.94
2019-01-04T00:10:01.568Z,99.99
2019-01-04T00:11:02.262Z,99.84
2019-01-04T00:12:02.948Z,99.99
2019-01-04T00:13:03.643Z,99.99
2019-01-04T00:14:04.329Z,99.99
2019-01-04T00:15:04.790Z,99.94
2019-01-04T00:16:05.478Z,99.18
2019-01-04T00:17:06.234Z,99.37
2019-01-04T00:18:07.200Z,99.94
2019-01-04T00:19:08.493Z,99.75
2019-01-04T00:20:08.457Z,99.99
2019-01-04T00:21:09.143Z,99.99
2019-01-04T00:22:09.950Z,99.99
2019-01-04T00:23:11.357Z,99.99
2019-01-04T00:24:12.044Z,99.99
2019-01-04T00:25:13.566Z,99.99
2019-01-04T00:26:13.975Z,99.99
2019-01-04T00:27:14.941Z,99.94
2019-01-04T00:28:15.937Z,99.94
2019-01-04T00:29:15.880Z,99.94
2019-01-04T00:30:16.288Z,99.37
2019-01-04T00:31:16.694Z,99.46
2019-01-04T00:32:17.668Z,99.84
2019-01-04T00:33:18.073Z,99.27
2019-01-04T00:34:19.202Z,99.27
2019-01-04T00:35:20.165Z,99.56
2019-01-04T00:36:20.850Z,99.27
2019-01-04T00:37:21.535Z,99.99
2019-01-04T00:38:22.221Z,99.46
2019-01-04T00:39:22.758Z,99.65
2019-01-04T00:40:23.724Z,99.46
2019-01-04T00:41:23.886Z,99.27
2019-01-04T00:42:24.294Z,99.37
2019-01-04T00:43:25.258Z,98.99
2019-01-04T00:44:25.502Z,98.71
2019-01-04T00:45:25.911Z,98.14
2019-01-04T00:46:26.598Z,97.96
2019-01-04T00:47:27.283Z,98.14
2019-01-04T00:48:28.527Z,98.05
2019-01-04T00:49:28.935Z,98.05
2019-01-04T00:50:29.896Z,97.96
2019-01-04T00:51:30.860Z,97.86
2019-01-04T00:52:31.271Z,97.96
2019-01-04T00:53:32.405Z,98.14
2019-01-04T00:54:32.807Z,98.24
2019-01-04T00:55:33.940Z,98.33
2019-01-04T00:56:34.348Z,97.86
2019-01-04T00:57:35.594Z,98.24
2019-01-04T00:58:36.279Z,97.96
2019-01-04T00:59:37.104Z,97.67
2019-01-04T01:00:37.511Z,97.48
2019-01-04T01:01:38.196Z,97.48
2019-01-04T01:02:38.601Z,97.2
2019-01-04T01:03:51.024Z,97.29
2019-01-04T01:04:51.845Z,97.1
2019-01-04T01:05:51.810Z,97.29
2019-01-04T01:06:52.788Z,97.01
2019-01-04T01:07:53.754Z,97.01
2019-01-04T01:08:53.892Z,96.54
2019-01-04T01:09:55.026Z,96.25
2019-01-04T01:10:56.189Z,96.35
2019-01-04T01:11:56.595Z,96.44
2019-01-04T01:12:57.886Z,96.63
2019-01-04T01:13:58.026Z,95.97
2019-01-04T01:14:58.859Z,95.21
2019-01-04T01:15:59.607Z,94.93
2019-01-04T01:17:00.022Z,95.03
2019-01-04T01:18:00.719Z,95.12
2019-01-04T01:19:01.131Z,95.5
2019-01-04T01:20:02.266Z,95.97
2019-01-04T01:21:02.999Z,95.97
2019-01-04T01:22:04.414Z,95.68
2019-01-04T01:23:05.105Z,96.06
2019-01-04T01:24:06.245Z,95.97
2019-01-04T01:25:06.901Z,95.87
2019-01-04T01:26:07.593Z,95.87
2019-01-04T01:27:08.281Z,95.97
2019-01-04T01:28:09.253Z,96.06
2019-01-04T01:29:09.669Z,96.44
2019-01-04T01:30:10.361Z,96.54
2019-01-04T01:31:10.775Z,95.97
2019-01-04T01:32:11.751Z,96.54
2019-01-04T01:33:12.713Z,96.82
2019-01-04T01:34:13.407Z,96.73
2019-01-04T01:35:13.523Z,97.1
2019-01-04T01:36:14.215Z,97.29
2019-01-04T01:37:15.353Z,97.58
2019-01-04T01:38:15.765Z,97.67
2019-01-04T01:39:16.458Z,97.48
2019-01-04T01:40:18.562Z,98.24
2019-01-04T01:41:17.705Z,98.24
2019-01-04T01:42:18.425Z,98.19
2019-01-04T01:43:18.415Z,98.05
2019-01-04T01:44:19.549Z,98.28
2019-01-04T01:45:20.094Z,98.28
2019-01-04T01:46:21.065Z,98.19
2019-01-04T01:47:21.759Z,98.14
2019-01-04T01:48:22.450Z,98.24
2019-01-04T01:49:23.147Z,98.1
2019-01-04T01:50:23.564Z,97.63
2019-01-04T01:51:24.259Z,97.53
2019-01-04T01:52:25.670Z,97.34
2019-01-04T01:53:25.805Z,97.53
2019-01-04T01:54:26.775Z,97.44
2019-01-04T01:55:27.900Z,97.53
2019-01-04T01:56:28.601Z,97.63
2019-01-04T01:57:29.567Z,97.34
2019-01-04T01:58:30.006Z,97.63
2019-01-04T01:59:30.706Z,98.19
2019-01-04T02:00:31.839Z,98
2019-01-04T02:01:32.253Z,98.19
2019-01-04T02:02:32.950Z,97.72
2019-01-04T02:03:33.920Z,97.34
2019-01-04T02:04:34.348Z,97.63
2019-01-04T02:05:35.171Z,97.29
2019-01-04T02:06:35.586Z,97.77
2019-01-04T02:07:36.721Z,98.1
2019-01-04T02:08:37.135Z,97.67
2019-01-04T02:09:38.392Z,98
2019-01-04T02:10:39.082Z,97.96
2019-01-04T02:11:39.495Z,98.28
2019-01-04T02:12:40.465Z,98.28
2019-01-04T02:13:41.162Z,98.14
2019-01-04T02:14:41.853Z,97.86
2019-01-04T02:15:42.690Z,98.24
2019-01-04T02:16:43.385Z,98.14
2019-01-04T02:17:43.629Z,98.28
2019-01-04T02:18:44.044Z,98.47
2019-01-04T02:19:45.016Z,98.05
2019-01-04T02:20:45.711Z,97.96
2019-01-04T02:21:46.683Z,98.71
2019-01-04T02:22:47.657Z,98.71
2019-01-04T02:23:48.069Z,98.38
2019-01-04T02:24:48.770Z,98.14
2019-01-04T02:25:49.167Z,98.76
2019-01-04T02:26:50.309Z,98.38
2019-01-04T02:27:51.003Z,97.96
2019-01-04T02:28:51.438Z,97.96
2019-01-04T02:29:52.851Z,98
2019-01-04T02:30:53.821Z,98.1
2019-01-04T02:31:55.078Z,98.1
2019-01-04T02:32:55.599Z,98.05
2019-01-04T02:33:56.570Z,98.33
2019-01-04T02:34:56.982Z,98.85
2019-01-04T02:35:57.945Z,98.99
2019-01-04T02:36:58.920Z,98.95
2019-01-04T02:37:59.168Z,99.18
2019-01-04T02:38:59.151Z,98.95
2019-01-04T02:39:59.643Z,99.14
2019-01-04T02:41:00.187Z,98.9
2019-01-04T02:42:01.491Z,98.8
2019-01-04T02:43:02.747Z,98.71
2019-01-04T02:44:03.442Z,99.37
2019-01-04T02:45:04.179Z,99.08
2019-01-04T02:46:05.019Z,99.27
2019-01-04T02:47:05.794Z,98.99
2019-01-04T02:48:07.045Z,99.46
2019-01-04T02:49:07.461Z,99.08
2019-01-04T02:50:08.720Z,98.71
2019-01-04T02:51:09.138Z,98.71
2019-01-04T02:52:10.120Z,98.9
2019-01-04T02:53:10.257Z,98.9
2019-01-04T02:54:11.779Z,98.9
2019-01-04T02:55:12.757Z,98.99
2019-01-04T02:56:13.418Z,98.9
2019-01-04T02:57:14.392Z,98.8
2019-01-04T02:58:14.357Z,98.71
2019-01-04T02:59:15.384Z,98.05
2019-01-04T03:00:16.077Z,98.71
2019-01-04T03:01:16.885Z,98.99
2019-01-04T03:02:17.420Z,98.24
2019-01-04T03:03:17.684Z,98.33
2019-01-04T03:04:18.656Z,98.33
2019-01-04T03:05:19.628Z,98.33
2019-01-04T03:06:19.855Z,98.14
2019-01-04T03:07:20.549Z,98.33
2019-01-04T03:08:21.293Z,98.33
2019-01-04T03:09:22.442Z,98.24
2019-01-04T03:10:22.418Z,98.71
2019-01-04T03:11:22.386Z,98.9
2019-01-04T03:12:23.083Z,98.71
2019-01-04T03:13:24.336Z,98.71
2019-01-04T03:14:25.165Z,98.8
2019-01-04T03:15:25.699Z,98.71
2019-01-04T03:16:26.899Z,98.61
2019-01-04T03:17:27.315Z,98.71
2019-01-04T03:18:28.561Z,98.9
2019-01-04T03:19:29.535Z,98.99
2019-01-04T03:20:30.353Z,98.99
2019-01-04T03:21:31.068Z,98.99
2019-01-04T03:22:31.604Z,98.71
2019-01-04T03:23:31.577Z,99.37
2019-01-04T03:24:33.010Z,98.99
2019-01-04T03:25:33.430Z,98.8
2019-01-04T03:26:33.989Z,98.71
2019-01-04T03:27:35.237Z,99.56
2019-01-04T03:28:35.760Z,99.27
2019-01-04T03:29:36.173Z,99.37
2019-01-04T03:30:38.165Z,98.61
2019-01-04T03:31:39.011Z,98.61
2019-01-04T03:32:40.394Z,99.37
2019-01-04T03:33:40.526Z,99.27
2019-01-04T03:34:41.352Z,99.27
2019-01-04T03:35:41.326Z,99.08
2019-01-04T03:36:42.721Z,98.99
2019-01-04T03:37:42.978Z,99.56
2019-01-04T03:38:43.682Z,98.61
2019-01-04T03:39:44.684Z,98.99
2019-01-04T03:40:44.933Z,99.18
2019-01-04T03:41:45.905Z,98.99
2019-01-04T03:42:46.749Z,98.8
2019-01-04T03:43:47.712Z,98.9
2019-01-04T03:44:48.689Z,98.99
2019-01-04T03:45:49.383Z,99.08
2019-01-04T03:46:50.084Z,99.08
2019-01-04T03:47:50.781Z,98.99
2019-01-04T03:48:51.192Z,98.9
2019-01-04T03:49:51.884Z,98.9
2019-01-04T03:50:53.154Z,98.71
2019-01-04T03:51:53.623Z,98.71
2019-01-04T03:52:54.875Z,98.71
2019-01-04T03:53:55.408Z,98.52
2019-01-04T03:54:56.386Z,98.33
2019-01-04T03:55:56.662Z,98.52
2019-01-04T03:56:57.768Z,99.08
2019-01-04T03:57:58.182Z,99.56
2019-01-04T03:58:58.372Z,98.52
2019-01-04T03:59:59.139Z,99.08
2019-01-04T04:00:59.645Z,98.43
2019-01-04T04:02:00.344Z,98.71
2019-01-04T04:03:01.873Z,99.27
2019-01-04T04:04:02.284Z,98.61
2019-01-04T04:05:02.841Z,98.52
2019-01-04T04:06:03.548Z,98.71
2019-01-04T04:07:04.955Z,98.61
2019-01-04T04:08:06.497Z,98.9
2019-01-04T04:09:06.190Z,99.37
2019-01-04T04:10:06.605Z,99.27
2019-01-04T04:11:07.577Z,98.99
2019-01-04T04:12:08.277Z,99.37
2019-01-04T04:13:08.992Z,99.08
2019-01-04T04:14:10.242Z,99.18
2019-01-04T04:15:10.942Z,99.27
2019-01-04T04:16:10.909Z,99.08
2019-01-04T04:17:11.797Z,99.37
2019-01-04T04:18:12.490Z,99.37
2019-01-04T04:19:12.674Z,99.27
2019-01-04T04:20:13.935Z,99.56
2019-01-04T04:21:14.181Z,99.08
2019-01-04T04:22:14.893Z,98.9
2019-01-04T04:23:15.147Z,99.18
2019-01-04T04:24:15.610Z,99.08
2019-01-04T04:25:16.030Z,99.37
2019-01-04T04:26:16.849Z,99.18
2019-01-04T04:27:18.228Z,99.75
2019-01-04T04:28:18.915Z,99.65
2019-01-04T04:29:19.469Z,99.37
2019-01-04T04:30:20.180Z,99.37
2019-01-04T04:31:21.432Z,99.08
2019-01-04T04:32:22.406Z,99.18
2019-01-04T04:33:23.160Z,99.08
2019-01-04T04:34:24.140Z,99.18
2019-01-04T04:35:24.670Z,99.99
2019-01-04T04:36:24.930Z,99.99
2019-01-04T04:37:26.043Z,99.94
2019-01-04T04:38:26.750Z,99.65
2019-01-04T04:39:27.443Z,99.65
2019-01-04T04:40:28.695Z,99.37
2019-01-04T04:41:29.822Z,99.27
2019-01-04T04:42:30.539Z,99.94
2019-01-04T04:43:30.955Z,99.94
2019-01-04T04:44:31.928Z,99.84
2019-01-04T04:45:32.895Z,99.99
2019-01-04T04:46:33.869Z,99.99
2019-01-04T04:47:34.700Z,99.99
2019-01-04T04:48:35.952Z,99.99
2019-01-04T04:49:36.364Z,99.99
2019-01-04T04:50:37.334Z,99.99
2019-01-04T04:51:38.412Z,99.99
2019-01-04T04:52:39.105Z,99.99
2019-01-04T04:53:40.071Z,99.65
2019-01-04T04:54:41.283Z,99.65
2019-01-04T04:55:42.295Z,99.94
2019-01-04T04:56:42.730Z,99.37
2019-01-04T04:57:43.032Z,99.37
2019-01-04T04:58:44.286Z,99.65
2019-01-04T04:59:44.979Z,99.99
2019-01-04T05:00:46.238Z,99.99
2019-01-04T05:01:47.215Z,99.99
2019-01-04T05:02:48.182Z,99.99
2019-01-04T05:03:48.882Z,99.99
2019-01-04T05:04:49.617Z,99.99
2019-01-04T05:05:50.618Z,99.94
2019-01-04T05:06:51.327Z,99.99
2019-01-04T05:07:52.350Z,99.75
2019-01-04T05:08:53.052Z,99.65
2019-01-04T05:09:54.187Z,99.65
2019-01-04T05:10:55.445Z,99.65
2019-01-04T05:11:55.869Z,99.94
2019-01-04T05:12:56.564Z,99.94
2019-01-04T05:13:57.695Z,99.65
2019-01-04T05:14:58.112Z,99.46
2019-01-04T05:15:59.122Z,98.61
2019-01-04T05:16:59.548Z,99.27
2019-01-04T05:18:00.653Z,98.8
2019-01-04T05:19:01.900Z,98.61
2019-01-04T05:20:02.236Z,99.46
2019-01-04T05:21:02.934Z,99.18
2019-01-04T05:22:03.907Z,98.9
2019-01-04T05:23:04.929Z,98.71
2019-01-04T05:24:05.493Z,98.9
2019-01-04T05:25:06.484Z,98.8
2019-01-04T05:26:07.176Z,98.61
2019-01-04T05:27:08.148Z,98.61
2019-01-04T05:28:09.251Z,99.18
2019-01-04T05:29:10.011Z,99.08
2019-01-04T05:30:10.703Z,98.99
2019-01-04T05:31:11.685Z,98.9
2019-01-04T05:32:11.951Z,98.8
2019-01-04T05:33:12.936Z,98.71
2019-01-04T05:34:13.912Z,98.99
2019-01-04T05:35:14.883Z,98.8
2019-01-04T05:36:15.889Z,98.71
2019-01-04T05:37:16.300Z,98.71
2019-01-04T05:38:17.592Z,98.9
2019-01-04T05:39:18.390Z,98.24
2019-01-04T05:40:18.637Z,98.33
2019-01-04T05:41:19.609Z,98.71
2019-01-04T05:42:20.305Z,98.9
2019-01-04T05:43:21.441Z,98.9
2019-01-04T05:44:22.408Z,99.08
2019-01-04T05:45:22.845Z,98.99
2019-01-04T05:46:23.538Z,98.33
2019-01-04T05:47:23.952Z,98.99
2019-01-04T05:48:24.621Z,98.99
2019-01-04T05:49:24.873Z,98.71
2019-01-04T05:50:25.006Z,99.08
2019-01-04T05:51:25.700Z,98.9
2019-01-04T05:52:26.494Z,98.71
2019-01-04T05:53:27.745Z,98.9
2019-01-04T05:54:28.156Z,98.61
2019-01-04T05:55:29.125Z,98.33
2019-01-04T05:56:29.848Z,99.08
2019-01-04T05:57:30.538Z,98.99
2019-01-04T05:58:31.230Z,99.08
2019-01-04T05:59:31.922Z,98.61
2019-01-04T06:00:32.337Z,98.33
2019-01-04T06:01:33.305Z,98.14
2019-01-04T06:02:34.757Z,98.14
2019-01-04T06:03:35.455Z,98.05
2019-01-04T06:04:35.877Z,98.14
2019-01-04T06:05:36.574Z,98.33
2019-01-04T06:06:37.258Z,98.33
2019-01-04T06:07:38.225Z,98.33
2019-01-04T06:08:39.049Z,98.24
2019-01-04T06:09:39.509Z,97.96
2019-01-04T06:10:40.479Z,98.43
2019-01-04T06:11:41.168Z,97.77
2019-01-04T06:12:41.624Z,98.05
2019-01-04T06:13:42.630Z,97.77
2019-01-04T06:14:42.600Z,98.33
2019-01-04T06:15:43.568Z,97.2
2019-01-04T06:16:44.257Z,97.48
2019-01-04T06:17:44.955Z,97.1
2019-01-04T06:18:46.461Z,97.2
2019-01-04T06:19:46.596Z,97.29
2019-01-04T06:20:47.013Z,96.82
2019-01-04T06:21:47.705Z,96.82
2019-01-04T06:22:48.396Z,96.63
2019-01-04T06:23:48.532Z,97.01
2019-01-04T06:24:49.230Z,96.25
2019-01-04T06:25:50.659Z,96.25
2019-01-04T06:26:51.629Z,96.63
2019-01-04T06:27:52.598Z,96.44
2019-01-04T06:28:53.424Z,96.06
2019-01-04T06:29:54.117Z,95.97
2019-01-04T06:30:55.254Z,95.87
2019-01-04T06:31:56.390Z,95.59
2019-01-04T06:32:56.803Z,95.21
2019-01-04T06:33:58.049Z,95.12
2019-01-04T06:34:58.186Z,95.03
2019-01-04T06:35:58.695Z,94.84
2019-01-04T06:37:00.238Z,94.93
2019-01-04T06:38:01.216Z,95.12
2019-01-04T06:39:01.337Z,95.31
2019-01-04T06:40:02.473Z,95.21
2019-01-04T06:41:03.452Z,95.21
2019-01-04T06:42:04.589Z,93.42
2019-01-04T06:43:05.570Z,93.32
2019-01-04T06:44:06.699Z,93.23
2019-01-04T06:45:07.669Z,93.42
2019-01-04T06:46:08.227Z,93.51
2019-01-04T06:47:08.919Z,93.32
2019-01-04T06:48:09.334Z,93.42
2019-01-04T06:49:09.886Z,92.38
2019-01-04T06:50:11.017Z,92.38
2019-01-04T06:51:11.712Z,92.38
2019-01-04T06:52:12.843Z,92.57
2019-01-04T06:53:13.257Z,92.38
2019-01-04T06:54:13.505Z,92.38
2019-01-04T06:55:13.920Z,92.24
2019-01-04T06:56:14.649Z,92.24
2019-01-04T06:57:15.058Z,92.38
2019-01-04T06:58:16.469Z,92.43
2019-01-04T06:59:17.314Z,91.53
2019-01-04T07:00:18.281Z,91.58
2019-01-04T07:01:18.980Z,91.39
2019-01-04T07:02:20.115Z,91.77
2019-01-04T07:03:21.251Z,91.29
2019-01-04T07:04:22.502Z,91.77
2019-01-04T07:05:23.193Z,91.48
2019-01-04T07:06:23.646Z,91.53
2019-01-04T07:07:24.057Z,91.48
2019-01-04T07:08:24.476Z,91.48
2019-01-04T07:09:25.322Z,91.86
2019-01-04T07:10:25.741Z,91.96
2019-01-04T07:11:26.708Z,91.77
2019-01-04T07:12:28.132Z,91.67
2019-01-04T07:13:28.550Z,91.96
2019-01-04T07:14:29.239Z,91.58
2019-01-04T07:15:30.489Z,91.39
2019-01-04T07:16:31.189Z,91.01
2019-01-04T07:17:31.883Z,91.39
2019-01-04T07:18:32.861Z,91.39
2019-01-04T07:19:33.536Z,91.48
2019-01-04T07:20:34.508Z,91.48
2019-01-04T07:21:34.647Z,91.67
2019-01-04T07:22:35.899Z,91.48
2019-01-04T07:23:36.327Z,91.67
2019-01-04T07:24:38.007Z,91.77
2019-01-04T07:25:38.656Z,91.77
2019-01-04T07:26:39.111Z,91.39
2019-01-04T07:27:39.528Z,91.01
2019-01-04T07:28:40.948Z,90.91
2019-01-04T07:29:41.497Z,90.73
2019-01-04T07:30:41.914Z,90.44
2019-01-04T07:31:42.650Z,90.44
2019-01-04T07:32:43.791Z,90.35
2019-01-04T07:33:44.768Z,90.82
2019-01-04T07:34:46.463Z,90.82
2019-01-04T07:35:46.602Z,90.44
2019-01-04T07:36:47.745Z,91.2
2019-01-04T07:37:48.723Z,91.2
2019-01-04T07:38:49.415Z,91.58
2019-01-04T07:39:50.574Z,91.48
2019-01-04T07:40:51.345Z,91.77
2019-01-04T07:41:52.047Z,91.58
2019-01-04T07:42:52.741Z,92.33
2019-01-04T07:43:53.881Z,92.33
2019-01-04T07:44:54.057Z,92.43
2019-01-04T07:45:55.200Z,92.9
2019-01-04T07:46:55.632Z,93.28
2019-01-04T07:47:56.773Z,93.28
2019-01-04T07:48:58.469Z,93.09
2019-01-04T07:49:58.740Z,93.66
2019-01-04T07:51:00.024Z,93.94
2019-01-04T07:52:00.166Z,94.89
2019-01-04T07:53:00.860Z,95.07
2019-01-04T07:54:01.554Z,94.98
2019-01-04T07:55:01.971Z,94.98
2019-01-04T07:56:02.110Z,94.98
2019-01-04T07:57:02.843Z,95.17
2019-01-04T07:58:03.261Z,95.36
2019-01-04T07:59:03.953Z,95.54
2019-01-04T08:00:05.078Z,95.45
2019-01-04T08:01:06.052Z,95.07
2019-01-04T08:02:06.743Z,95.17
2019-01-04T08:03:06.717Z,95.45
2019-01-04T08:04:08.132Z,95.45
2019-01-04T08:05:08.827Z,95.45
2019-01-04T08:06:09.804Z,95.17
2019-01-04T08:07:10.775Z,94.98
2019-01-04T08:08:11.195Z,94.98
2019-01-04T08:09:11.892Z,95.45
2019-01-04T08:10:13.046Z,96.3
2019-01-04T08:11:13.743Z,95.83
2019-01-04T08:12:13.879Z,95.73
2019-01-04T08:13:14.295Z,96.3
2019-01-04T08:14:14.762Z,96.4
2019-01-04T08:15:16.433Z,96.78
2019-01-04T08:16:16.859Z,96.78
2019-01-04T08:17:17.551Z,96.68
2019-01-04T08:18:18.247Z,97.34
2019-01-04T08:19:18.667Z,97.25
2019-01-04T08:20:19.221Z,97.81
2019-01-04T08:21:20.359Z,97.91
2019-01-04T08:22:21.780Z,97.53
2019-01-04T08:23:22.757Z,97.53
2019-01-04T08:24:23.730Z,97.34
2019-01-04T08:25:24.159Z,97.06
2019-01-04T08:26:25.296Z,97.72
2019-01-04T08:27:26.438Z,98
2019-01-04T08:28:26.854Z,98.19
2019-01-04T08:29:27.107Z,98.47
2019-01-04T08:30:28.281Z,98.38
2019-01-04T08:31:28.740Z,98.47
2019-01-04T08:32:29.647Z,98.66
2019-01-04T08:33:30.620Z,98.28
2019-01-04T08:34:31.314Z,99.04
2019-01-04T08:35:31.739Z,98.47
2019-01-04T08:36:33.159Z,98.28
2019-01-04T08:37:33.858Z,98
2019-01-04T08:38:35.283Z,98.47
2019-01-04T08:39:36.266Z,98.85
2019-01-04T08:40:37.096Z,98.57
2019-01-04T08:41:38.065Z,99.14
2019-01-04T08:42:38.487Z,99.04
2019-01-04T08:43:39.741Z,99.23
2019-01-04T08:44:40.161Z,99.27
2019-01-04T08:45:41.137Z,99.27
2019-01-04T08:46:41.279Z,99.37
2019-01-04T08:47:41.976Z,99.8
2019-01-04T08:48:42.569Z,99.37
2019-01-04T08:48:54.322Z,99.99
2019-01-04T08:49:55.231Z,99.56
2019-01-04T08:50:55.924Z,99.84
2019-01-04T08:51:57.452Z,99.52
2019-01-04T08:52:58.147Z,99.71
2019-01-04T08:53:59.123Z,99.52
2019-01-04T08:54:59.261Z,99.46
2019-01-04T08:56:00.279Z,99.99
2019-01-04T08:57:00.972Z,99.46
2019-01-04T08:58:02.946Z,99.99
2019-01-04T08:59:03.370Z,99.94
2019-01-04T09:00:04.055Z,99.99
2019-01-04T09:01:04.440Z,99.99
2019-01-04T09:02:05.411Z,99.99
2019-01-04T09:03:06.828Z,99.99
2019-01-04T09:04:07.245Z,99.99
2019-01-04T09:05:07.662Z,99.99
2019-01-04T09:06:08.636Z,99.99
2019-01-04T09:07:08.609Z,99.99
2019-01-04T09:08:09.587Z,99.99
2019-01-04T09:09:10.018Z,99.99
2019-01-04T09:10:10.397Z,99.99
2019-01-04T09:11:11.110Z,99.99
2019-01-04T09:12:12.532Z,99.99
2019-01-04T09:13:15.768Z,99.99
2019-01-04T09:14:15.470Z,99.99
2019-01-04T09:15:16.795Z,99.99
2019-01-04T09:16:17.083Z,99.99
2019-01-04T09:17:18.223Z,99.99
2019-01-04T09:18:19.364Z,99.99
2019-01-04T09:19:19.783Z,99.99
2019-01-04T09:20:20.977Z,99.99
2019-01-04T09:21:21.675Z,99.99
2019-01-04T09:22:22.791Z,99.99
2019-01-04T09:23:23.665Z,99.99
2019-01-04T09:24:24.085Z,99.99
2019-01-04T09:25:24.792Z,99.99
2019-01-04T09:26:25.492Z,99.99
2019-01-04T09:27:25.641Z,99.99
2019-01-04T09:28:26.064Z,99.99
2019-01-04T09:29:26.577Z,99.99
2019-01-04T09:30:27.362Z,99.99
2019-01-04T09:31:28.057Z,99.99
2019-01-04T09:32:28.753Z,99.99
2019-01-04T09:33:28.897Z,99.99
2019-01-04T09:34:30.072Z,99.99
2019-01-04T09:35:30.768Z,99.99
2019-01-04T09:36:32.190Z,99.99
2019-01-04T09:37:32.342Z,99.99
2019-01-04T09:38:33.048Z,99.99
2019-01-04T09:39:33.470Z,99.99
2019-01-04T09:40:34.581Z,99.99
2019-01-04T09:41:35.392Z,99.99
2019-01-04T09:42:35.374Z,99.99
2019-01-04T09:43:36.076Z,99.99
2019-01-04T09:44:37.337Z,99.99
2019-01-04T09:45:37.472Z,99.99
2019-01-04T09:46:38.614Z,99.99
2019-01-04T09:47:39.591Z,99.99
2019-01-04T09:48:39.290Z,99.99
2019-01-04T09:49:40.264Z,99.99
2019-01-04T09:50:40.663Z,99.52
2019-01-04T09:51:42.620Z,99.61
2019-01-04T09:52:44.037Z,99.8
2019-01-04T09:53:45.077Z,99.8
2019-01-04T09:54:45.862Z,99.99
2019-01-04T09:55:47.930Z,99.71
2019-01-04T09:56:49.700Z,99.99
2019-01-04T09:57:49.911Z,99.99
2019-01-04T09:58:50.609Z,99.99
2019-01-04T09:59:50.581Z,99.99
2019-01-04T10:00:54.816Z,99.99
2019-01-04T10:01:04.247Z,99.99
2019-01-04T10:02:07.323Z,99.99
2019-01-04T10:02:18.868Z,99.99
2019-01-04T10:02:33.063Z,99.99
2019-01-04T10:02:46.427Z,99.99
2019-01-04T10:02:56.409Z,99.99
2019-01-04T10:03:57.373Z,99.99
2019-01-04T10:04:57.346Z,99.99
2019-01-04T10:05:58.042Z,99.95
2019-01-04T10:06:59.016Z,99.99
2019-01-04T10:07:59.717Z,99.57
2019-01-04T10:09:01.424Z,99.99
2019-01-04T10:10:01.098Z,99.95
2019-01-04T10:11:01.814Z,99.66
2019-01-04T10:12:05.526Z,99.99
2019-01-04T10:12:16.261Z,99.99
2019-01-04T10:13:17.377Z,99.99
2019-01-04T10:14:19.084Z,99.99
2019-01-04T10:15:19.782Z,99.99
2019-01-04T10:16:23.461Z,99.99
2019-01-04T10:16:32.505Z,99.99
2019-01-04T10:17:33.056Z,99.99
2019-01-04T10:18:33.752Z,99.99
2019-01-04T10:19:34.727Z,99.85
2019-01-04T10:20:35.430Z,99.99
2019-01-04T10:21:36.690Z,99.95
2019-01-04T10:22:38.185Z,99.99
2019-01-04T10:23:38.459Z,99.99
2019-01-04T10:24:40.878Z,99.99
2019-01-04T10:25:41.131Z,99.99
2019-01-04T10:26:41.602Z,99.99
2019-01-04T10:27:43.797Z,99.99
2019-01-04T10:28:45.550Z,99.95
2019-01-04T10:29:45.689Z,99.99
2019-01-04T10:30:47.114Z,99.99
2019-01-04T10:31:49.078Z,99.99
2019-01-04T10:32:50.103Z,99.99
2019-01-04T10:33:52.149Z,99.66
2019-01-04T10:34:54.308Z,99.99
2019-01-04T10:35:54.459Z,99.99
2019-01-04T10:36:54.908Z,99.99
2019-01-04T10:37:57.606Z,99.99
2019-01-04T10:38:59.801Z,99.99
2019-01-04T10:39:59.493Z,99.99
2019-01-04T10:40:59.693Z,99.99
2019-01-04T10:42:01.334Z,99.99
2019-01-04T10:43:02.188Z,99.9
2019-01-04T10:44:02.995Z,99.66
2019-01-04T10:45:03.425Z,99.99
2019-01-04T10:46:03.691Z,99.99
2019-01-04T10:47:05.320Z,99.05
2019-01-04T10:48:06.416Z,98.86
2019-01-04T10:49:08.606Z,98.96
2019-01-04T10:50:08.170Z,98.67
2019-01-04T10:51:11.618Z,98.96
2019-01-04T10:52:11.702Z,99.15
2019-01-04T10:53:13.516Z,99.05
2019-01-04T10:54:14.200Z,99.43
2019-01-04T10:55:14.903Z,99.05
2019-01-04T10:56:15.045Z,98.67
2019-01-04T10:57:16.205Z,98.48
2019-01-04T10:58:16.378Z,98.67
2019-01-04T10:59:16.796Z,98.77
2019-01-04T11:00:17.218Z,98.67
2019-01-04T11:01:17.471Z,98.39
2019-01-04T11:02:17.893Z,98.48
2019-01-04T11:03:18.591Z,98.67
2019-01-04T11:04:19.845Z,98.96
2019-01-04T11:05:21.844Z,99.71
2019-01-04T11:06:22.537Z,99.33
2019-01-04T11:07:23.513Z,98.86
2019-01-04T11:08:24.097Z,97.91
2019-01-04T11:09:25.360Z,97.82
2019-01-04T11:10:26.608Z,97.44
2019-01-04T11:11:27.309Z,97.72
2019-01-04T11:12:28.733Z,97.72
2019-01-04T11:13:28.881Z,97.82
2019-01-04T11:14:29.305Z,97.91
2019-01-04T11:15:32.350Z,98.2
2019-01-04T11:16:34.506Z,98.39
2019-01-04T11:16:46.748Z,98.39
2019-01-04T11:16:59.275Z,98.2
2019-01-04T11:17:58.840Z,98.67
2019-01-04T11:19:01.987Z,98.48
2019-01-04T11:20:01.321Z,98.01
2019-01-04T11:21:02.026Z,97.53
2019-01-04T11:22:03.377Z,97.44
2019-01-04T11:23:03.573Z,96.5
2019-01-04T11:24:04.274Z,95.74
2019-01-04T11:25:04.414Z,95.12
2019-01-04T11:26:05.558Z,95.21
2019-01-04T11:27:05.986Z,94.37
2019-01-04T11:28:06.844Z,94.93
2019-01-04T11:29:06.989Z,95.31
2019-01-04T11:30:08.521Z,95.12
2019-01-04T11:31:09.223Z,93.8
2019-01-04T11:32:09.199Z,94.37
2019-01-04T11:33:09.623Z,95.12
2019-01-04T11:34:11.047Z,94.65
2019-01-04T11:35:11.745Z,94.46
2019-01-04T11:36:12.890Z,93.99
2019-01-04T11:37:13.317Z,94.08
2019-01-04T11:38:14.699Z,93.32
2019-01-04T11:39:14.397Z,93.99
2019-01-04T11:40:14.817Z,93.56
2019-01-04T11:41:16.401Z,94.42
2019-01-04T11:42:15.782Z,94.32
2019-01-04T11:43:16.205Z,94.98
2019-01-04T11:44:16.628Z,94.79
2019-01-04T11:45:17.610Z,94.23
2019-01-04T11:46:18.302Z,94.18
2019-01-04T11:47:21.708Z,94.56
2019-01-04T11:48:21.549Z,94.27
2019-01-04T11:49:22.248Z,94.08
2019-01-04T11:50:22.947Z,94.37
2019-01-04T11:51:23.373Z,94.46
2019-01-04T11:52:24.065Z,94.37
2019-01-04T11:52:36.375Z,94.46
2019-01-04T11:53:36.516Z,93.7
2019-01-04T11:54:36.938Z,93.61
2019-01-04T11:55:38.058Z,92.85
2019-01-04T11:56:38.199Z,91.81
2019-01-04T11:57:38.621Z,91.72
2019-01-04T11:58:39.650Z,91.43
2019-01-04T11:59:40.380Z,91.39
2019-01-04T12:00:41.358Z,92.33
2019-01-04T12:01:42.332Z,92.9
2019-01-04T12:02:42.753Z,93.18
2019-01-04T12:03:43.670Z,94.04
2019-01-04T12:04:44.811Z,93.75
2019-01-04T12:05:45.274Z,93.37
2019-01-04T12:06:45.697Z,93.28
2019-01-04T12:07:46.948Z,92.61
2019-01-04T12:08:47.090Z,93.09
2019-01-04T12:09:47.791Z,93.56
2019-01-04T12:10:48.208Z,93.28
2019-01-04T12:11:49.357Z,92.9
2019-01-04T12:12:52.023Z,92.99
2019-01-04T12:13:52.171Z,93.09
2019-01-04T12:14:07.274Z,92.66
2019-01-04T12:15:05.532Z,92.71
2019-01-04T12:16:06.950Z,93.04
2019-01-04T12:17:09.722Z,92.85
2019-01-04T12:18:09.154Z,92.76
2019-01-04T12:19:09.569Z,92.1
2019-01-04T12:20:10.538Z,92.29
2019-01-04T12:21:11.415Z,92.29
2019-01-04T12:22:12.390Z,93.04
2019-01-04T12:23:12.396Z,93.37
2019-01-04T12:24:13.098Z,93.51
2019-01-04T12:25:13.629Z,93.28
2019-01-04T12:26:14.599Z,93.42
2019-01-04T12:27:14.747Z,94.08
2019-01-04T12:28:18.701Z,93.8
2019-01-04T12:28:30.409Z,93.7
2019-01-04T12:28:43.121Z,93.8
2019-01-04T12:28:55.018Z,93.7
2019-01-04T12:29:06.888Z,93.89
2019-01-04T12:30:06.653Z,93.51
2019-01-04T12:31:08.351Z,92.76
2019-01-04T12:32:08.776Z,92.9
2019-01-04T12:33:11.425Z,93.32
2019-01-04T12:34:16.470Z,92.99
2019-01-04T12:34:21.795Z,93.47
2019-01-04T12:35:22.404Z,94.13
2019-01-04T12:36:26.594Z,94.23
2019-01-04T12:36:37.780Z,93.94
2019-01-04T12:36:49.167Z,93.47
2019-01-04T12:37:47.968Z,93.66
2019-01-04T12:38:49.113Z,93.75
2019-01-04T12:39:50.712Z,94.23
2019-01-04T12:40:50.683Z,93.85
2019-01-04T12:41:51.937Z,93.37
2019-01-04T12:42:52.361Z,93.09
2019-01-04T12:43:53.629Z,93.85
2019-01-04T12:44:53.601Z,94.32
2019-01-04T12:45:56.945Z,93.75
2019-01-04T12:46:08.788Z,94.18
2019-01-04T12:47:11.034Z,94.32
2019-01-04T12:47:23.609Z,94.04
2019-01-04T12:47:35.835Z,94.23
2019-01-04T12:48:33.298Z,93.89